createdAt,value
2017-11-27T00:00:23.281Z,4.10
2017-11-27T00:02:50.781Z,3.60
2017-11-27T00:05:18.325Z,3.33
2017-11-27T00:07:45.849Z,3.63
2017-11-27T00:10:13.406Z,3.63
2017-11-27T00:12:40.959Z,3.97
2017-11-27T00:15:08.502Z,3.37
2017-11-27T00:17:36.038Z,3.73
2017-11-27T00:20:03.585Z,3.57
2017-11-27T00:22:40.887Z,3.63
2017-11-27T00:25:08.451Z,4.10
2017-11-27T00:27:35.972Z,4.10
2017-11-27T00:30:03.510Z,3.77
2017-11-27T00:32:31.065Z,4.43
2017-11-27T00:34:58.585Z,4.00
2017-11-27T00:37:26.140Z,3.90
2017-11-27T00:39:53.698Z,3.70
2017-11-27T00:42:21.243Z,3.93
2017-11-27T00:44:48.748Z,3.57
2017-11-27T00:47:16.342Z,3.43
2017-11-27T00:49:43.899Z,3.80
2017-11-27T00:52:11.437Z,3.23
2017-11-27T00:54:38.950Z,3.90
2017-11-27T00:57:06.515Z,3.67
2017-11-27T00:59:34.035Z,3.87
2017-11-27T01:02:01.597Z,2.97
2017-11-27T01:04:29.136Z,3.93
2017-11-27T01:06:57.689Z,3.10
2017-11-27T01:09:25.238Z,3.30
2017-11-27T01:11:52.786Z,3.60
2017-11-27T01:14:20.304Z,3.40
2017-11-27T01:16:47.861Z,3.97
2017-11-27T01:19:15.396Z,3.50
2017-11-27T01:21:43.669Z,3.50
2017-11-27T01:24:11.207Z,3.30
2017-11-27T01:26:38.757Z,3.43
2017-11-27T01:29:06.550Z,3.70
2017-11-27T01:31:34.110Z,4.23
2017-11-27T01:34:01.667Z,3.33
2017-11-27T01:36:29.216Z,3.70
2017-11-27T01:38:56.746Z,3.87
2017-11-27T01:41:24.284Z,3.50
2017-11-27T01:43:51.802Z,3.80
2017-11-27T01:46:19.356Z,3.50
2017-11-27T01:48:46.910Z,3.60
2017-11-27T01:51:14.547Z,3.73
2017-11-27T01:53:42.078Z,3.37
2017-11-27T01:56:09.597Z,3.17
2017-11-27T01:58:37.161Z,3.13
2017-11-27T02:01:05.461Z,3.13
2017-11-27T02:03:32.962Z,3.60
2017-11-27T02:06:00.510Z,3.30
2017-11-27T02:08:28.025Z,3.23
2017-11-27T02:10:55.625Z,3.43
2017-11-27T02:13:23.179Z,3.67
2017-11-27T02:15:50.714Z,3.33
2017-11-27T02:18:18.282Z,3.33
2017-11-27T02:20:45.817Z,3.30
2017-11-27T02:23:13.325Z,3.80
2017-11-27T02:25:40.894Z,3.37
2017-11-27T02:28:08.407Z,3.40
2017-11-27T02:30:35.917Z,3.60
2017-11-27T02:33:03.474Z,3.20
2017-11-27T02:35:30.994Z,3.20
2017-11-27T02:37:58.518Z,3.50
2017-11-27T02:40:26.066Z,3.43
2017-11-27T02:42:53.578Z,3.33
2017-11-27T02:45:21.114Z,3.40
2017-11-27T02:47:48.632Z,3.40
2017-11-27T02:50:16.204Z,3.50
2017-11-27T02:52:43.714Z,3.67
2017-11-27T02:55:12.861Z,3.27
2017-11-27T02:57:40.412Z,3.27
2017-11-27T03:00:07.970Z,3.33
2017-11-27T03:02:35.493Z,3.33
2017-11-27T03:05:03.046Z,3.00
2017-11-27T03:07:30.608Z,2.90
2017-11-27T03:09:58.121Z,2.87
2017-11-27T03:12:25.999Z,3.00
2017-11-27T03:14:53.525Z,3.47
2017-11-27T03:17:21.086Z,2.90
2017-11-27T03:19:48.610Z,3.37
2017-11-27T03:22:16.188Z,2.73
2017-11-27T03:24:43.706Z,2.97
2017-11-27T03:27:12.071Z,3.37
2017-11-27T03:29:39.627Z,3.10
2017-11-27T03:32:07.184Z,3.17
2017-11-27T03:34:34.707Z,2.60
2017-11-27T03:37:02.249Z,2.83
2017-11-27T03:39:29.821Z,2.60
2017-11-27T03:41:57.347Z,2.90
2017-11-27T03:44:24.884Z,3.07
2017-11-27T03:46:52.443Z,3.17
2017-11-27T03:49:19.992Z,3.20
2017-11-27T03:51:47.592Z,2.50
2017-11-27T03:54:15.904Z,2.93
2017-11-27T03:56:43.455Z,2.90
2017-11-27T03:59:11.083Z,2.87
2017-11-27T04:01:38.610Z,2.40
2017-11-27T04:04:06.162Z,2.90
2017-11-27T04:06:33.684Z,2.93
2017-11-27T04:09:01.239Z,3.00
2017-11-27T04:11:28.766Z,2.53
2017-11-27T04:13:56.291Z,2.60
2017-11-27T04:16:23.887Z,2.67
2017-11-27T04:18:51.409Z,2.87
2017-11-27T04:21:18.976Z,2.80
2017-11-27T04:23:46.535Z,2.60
2017-11-27T04:26:14.093Z,2.70
2017-11-27T04:28:41.613Z,2.30
2017-11-27T04:31:09.178Z,2.80
2017-11-27T04:33:37.167Z,2.70
2017-11-27T04:36:04.755Z,3.00
2017-11-27T04:38:32.330Z,2.37
2017-11-27T04:40:59.893Z,3.00
2017-11-27T04:43:27.406Z,2.33
2017-11-27T04:45:54.984Z,2.77
2017-11-27T04:48:22.581Z,3.07
2017-11-27T04:50:50.161Z,3.17
2017-11-27T04:53:17.694Z,3.73
2017-11-27T04:55:46.005Z,3.80
2017-11-27T04:58:13.575Z,3.47
2017-11-27T05:00:41.129Z,3.23
2017-11-27T05:03:08.735Z,3.30
2017-11-27T05:05:36.278Z,3.33
2017-11-27T05:08:03.831Z,3.03
2017-11-27T05:10:31.346Z,2.57
2017-11-27T05:12:58.904Z,2.80
2017-11-27T05:15:27.221Z,2.70
2017-11-27T05:17:54.782Z,2.80
2017-11-27T05:20:22.320Z,2.47
2017-11-27T05:22:49.902Z,2.70
2017-11-27T05:25:17.466Z,2.30
2017-11-27T05:27:45.076Z,2.63
2017-11-27T05:30:12.601Z,2.40
2017-11-27T05:32:40.176Z,2.50
2017-11-27T05:35:07.730Z,2.70
2017-11-27T05:37:35.288Z,3.20
2017-11-27T05:40:02.838Z,2.60
2017-11-27T05:42:30.362Z,2.60
2017-11-27T05:44:57.924Z,2.97
2017-11-27T05:47:25.452Z,3.67
2017-11-27T05:49:53.783Z,2.80
2017-11-27T05:52:21.310Z,2.70
2017-11-27T05:54:48.835Z,2.80
2017-11-27T05:57:16.395Z,3.00
2017-11-27T05:59:43.927Z,2.93
2017-11-27T06:02:11.481Z,3.00
2017-11-27T06:04:39.019Z,2.97
2017-11-27T06:07:06.582Z,3.10
2017-11-27T06:09:34.129Z,2.97
2017-11-27T06:12:01.663Z,2.53
2017-11-27T06:14:29.229Z,2.53
2017-11-27T06:16:57.130Z,2.63
2017-11-27T06:19:24.690Z,2.70
2017-11-27T06:21:52.221Z,2.47
2017-11-27T06:24:19.798Z,2.87
2017-11-27T06:26:47.319Z,2.90
2017-11-27T06:29:14.860Z,2.50
2017-11-27T06:31:42.423Z,2.80
2017-11-27T06:34:09.950Z,3.03
2017-11-27T06:36:37.523Z,3.10
2017-11-27T06:39:05.084Z,3.80
2017-11-27T06:41:32.643Z,3.30
2017-11-27T06:44:00.159Z,3.27
2017-11-27T06:46:27.711Z,3.90
2017-11-27T06:48:55.278Z,3.23
2017-11-27T06:51:23.595Z,3.13
2017-11-27T06:53:51.196Z,5.47
2017-11-27T06:56:18.710Z,4.53
2017-11-27T06:58:46.226Z,4.17
2017-11-27T07:01:13.783Z,3.40
2017-11-27T07:03:42.087Z,3.50
2017-11-27T07:06:09.683Z,3.60
2017-11-27T07:08:37.232Z,3.40
2017-11-27T07:11:04.772Z,5.77
2017-11-27T07:13:32.343Z,3.83
2017-11-27T07:15:59.900Z,5.20
2017-11-27T07:18:27.848Z,4.27
2017-11-27T07:20:55.555Z,2.53
2017-11-27T07:23:23.083Z,3.20
2017-11-27T07:25:50.600Z,3.30
2017-11-27T07:28:18.248Z,4.20
2017-11-27T07:30:46.592Z,3.63
2017-11-27T07:33:14.180Z,2.80
2017-11-27T07:35:41.913Z,3.30
2017-11-27T07:38:15.174Z,3.20
2017-11-27T07:40:43.495Z,3.33
2017-11-27T07:43:11.063Z,3.00
2017-11-27T07:45:38.624Z,3.53
2017-11-27T07:48:06.158Z,3.10
2017-11-27T07:50:33.722Z,3.67
2017-11-27T07:53:01.366Z,3.30
2017-11-27T07:55:28.921Z,3.60
2017-11-27T07:57:56.454Z,2.70
2017-11-27T08:00:24.035Z,3.40
2017-11-27T08:02:51.627Z,3.37
2017-11-27T08:05:19.164Z,3.53
2017-11-27T08:07:46.723Z,4.50
2017-11-27T08:12:56.159Z,2.90
2017-11-27T08:15:23.699Z,2.73
2017-11-27T08:17:51.239Z,3.00
2017-11-27T08:20:18.816Z,2.87
2017-11-27T08:22:46.346Z,2.57
2017-11-27T08:25:13.883Z,3.30
2017-11-27T08:27:41.445Z,3.93
2017-11-27T08:30:08.975Z,4.40
2017-11-27T08:32:37.327Z,20.70
2017-11-27T08:35:05.236Z,18.10
2017-11-27T08:37:32.810Z,16.57
2017-11-27T08:45:46.486Z,3.83
2017-11-27T08:48:14.021Z,3.33
2017-11-27T08:50:42.347Z,3.20
2017-11-27T08:53:10.140Z,3.03
2017-11-27T08:55:38.494Z,3.93
2017-11-27T08:58:06.392Z,3.33
2017-11-27T09:00:33.985Z,3.27
2017-11-27T09:03:01.706Z,3.27
2017-11-27T09:05:29.261Z,3.30
2017-11-27T09:07:56.849Z,2.93
2017-11-27T09:10:24.850Z,2.80
2017-11-27T09:12:52.711Z,3.10
2017-11-27T09:15:20.245Z,3.07
2017-11-27T09:17:47.809Z,5.57
2017-11-27T09:20:15.386Z,3.60
2017-11-27T09:22:43.062Z,3.70
2017-11-27T09:25:10.755Z,3.17
2017-11-27T09:27:38.373Z,2.93
2017-11-27T09:30:05.918Z,3.30
2017-11-27T09:32:33.667Z,3.30
2017-11-27T09:35:01.310Z,3.33
2017-11-27T09:37:29.594Z,3.10
2017-11-27T09:39:57.718Z,3.30
2017-11-27T09:42:25.294Z,3.30
2017-11-27T09:44:52.826Z,3.23
2017-11-27T09:47:20.345Z,3.27
2017-11-27T09:49:47.945Z,2.90
2017-11-27T09:52:15.462Z,3.00
2017-11-27T09:54:43.010Z,2.60
2017-11-27T09:57:10.553Z,2.90
2017-11-27T09:59:38.073Z,2.63
2017-11-27T10:02:05.612Z,2.63
2017-11-27T10:04:33.234Z,2.57
2017-11-27T10:07:01.229Z,2.30
2017-11-27T10:09:28.768Z,2.87
2017-11-27T10:11:56.371Z,2.80
2017-11-27T10:14:23.896Z,2.83
2017-11-27T10:16:51.433Z,3.30
2017-11-27T10:19:19.186Z,2.87
2017-11-27T10:21:46.749Z,2.50
2017-11-27T10:24:14.301Z,2.63
2017-11-27T10:26:41.845Z,2.93
2017-11-27T10:29:09.400Z,2.90
2017-11-27T10:31:36.937Z,2.73
2017-11-27T10:34:04.482Z,2.40
2017-11-27T10:36:31.993Z,2.00
2017-11-27T10:38:59.533Z,2.57
2017-11-27T10:41:27.067Z,2.20
2017-11-27T10:43:54.659Z,2.20
2017-11-27T10:46:22.226Z,1.93
2017-11-27T10:48:49.811Z,2.10
2017-11-27T10:51:17.345Z,2.53
2017-11-27T10:53:44.891Z,2.00
2017-11-27T10:56:12.479Z,2.67
2017-11-27T10:58:40.137Z,2.00
2017-11-27T11:01:07.971Z,2.07
2017-11-27T11:03:35.515Z,1.80
2017-11-27T11:06:03.282Z,2.00
2017-11-27T11:08:30.881Z,1.93
2017-11-27T11:10:58.443Z,1.90
2017-11-27T11:13:26.244Z,1.63
2017-11-27T11:15:53.789Z,2.07
2017-11-27T11:18:21.319Z,1.90
2017-11-27T11:20:48.877Z,2.10
2017-11-27T11:23:16.439Z,2.33
2017-11-27T11:25:44.988Z,2.23
2017-11-27T11:28:12.508Z,2.93
2017-11-27T11:30:40.091Z,2.50
2017-11-27T11:33:07.675Z,2.10
2017-11-27T11:35:35.262Z,1.90
2017-11-27T11:38:02.834Z,2.20
2017-11-27T11:40:30.361Z,2.20
2017-11-27T11:42:58.001Z,1.63
2017-11-27T11:45:25.710Z,1.77
2017-11-27T11:47:53.249Z,2.00
2017-11-27T11:50:20.793Z,2.70
2017-11-27T11:52:48.334Z,3.10
2017-11-27T11:55:15.860Z,2.00
2017-11-27T11:57:43.483Z,1.67
2017-11-27T12:00:10.989Z,1.87
2017-11-27T12:02:38.538Z,2.37
2017-11-27T12:05:06.101Z,1.90
2017-11-27T12:07:33.664Z,2.50
2017-11-27T12:10:01.199Z,2.03
2017-11-27T12:12:28.810Z,2.47
2017-11-27T12:14:57.098Z,2.97
2017-11-27T12:17:24.622Z,2.07
2017-11-27T12:19:52.296Z,2.10
2017-11-27T12:22:19.837Z,2.50
2017-11-27T12:24:47.396Z,1.83
2017-11-27T12:27:14.922Z,2.17
2017-11-27T12:29:43.300Z,2.20
2017-11-27T12:32:11.617Z,2.00
2017-11-27T12:34:39.188Z,2.03
2017-11-27T12:37:06.746Z,2.30
2017-11-27T12:39:34.284Z,1.97
2017-11-27T12:42:01.930Z,2.27
2017-11-27T12:44:29.490Z,2.33
2017-11-27T12:46:57.023Z,2.23
2017-11-27T12:49:25.451Z,1.90
2017-11-27T12:51:53.024Z,2.50
2017-11-27T12:54:20.558Z,2.50
2017-11-27T12:56:48.146Z,2.27
2017-11-27T12:59:15.677Z,2.17
2017-11-27T13:01:43.227Z,2.00
2017-11-27T13:04:10.989Z,2.23
2017-11-27T13:06:38.553Z,1.70
2017-11-27T13:09:06.144Z,1.97
2017-11-27T13:11:33.716Z,1.90
2017-11-27T13:14:01.261Z,2.03
2017-11-27T13:16:28.809Z,1.80
2017-11-27T13:18:56.326Z,1.60
2017-11-27T13:21:24.205Z,1.90
2017-11-27T13:23:52.533Z,1.87
2017-11-27T13:26:20.262Z,1.93
2017-11-27T13:28:47.826Z,1.70
2017-11-27T13:31:15.433Z,1.90
2017-11-27T13:33:42.944Z,2.03
2017-11-27T13:36:10.496Z,2.10
2017-11-27T13:38:38.009Z,2.13
2017-11-27T13:41:05.615Z,2.27
2017-11-27T13:43:33.126Z,2.03
2017-11-27T13:46:00.674Z,2.03
2017-11-27T13:48:28.218Z,2.07
2017-11-27T13:50:55.797Z,2.07
2017-11-27T13:53:23.321Z,1.90
2017-11-27T13:55:50.959Z,2.00
2017-11-27T13:58:18.512Z,2.03
2017-11-27T14:00:47.008Z,2.17
2017-11-27T14:03:14.621Z,2.77
2017-11-27T14:05:42.322Z,1.90
2017-11-27T14:08:09.850Z,2.10
2017-11-27T14:10:37.424Z,1.97
2017-11-27T14:13:05.004Z,2.00
2017-11-27T14:15:32.600Z,1.90
2017-11-27T14:18:00.125Z,2.20
2017-11-27T14:20:27.672Z,1.87
2017-11-27T14:22:55.196Z,2.10
2017-11-27T14:25:22.756Z,2.33
2017-11-27T14:27:50.346Z,2.20
2017-11-27T14:30:17.883Z,2.10
2017-11-27T14:32:45.391Z,2.33
2017-11-27T14:35:13.697Z,2.07
2017-11-27T14:37:41.335Z,1.90
2017-11-27T14:40:09.326Z,3.37
2017-11-27T14:42:36.941Z,2.30
2017-11-27T14:45:04.511Z,2.00
2017-11-27T14:47:32.349Z,2.27
2017-11-27T14:49:59.903Z,2.10
2017-11-27T14:52:28.274Z,2.50
2017-11-27T14:54:55.792Z,2.67
2017-11-27T14:57:23.540Z,2.30
2017-11-27T14:59:51.106Z,2.33
2017-11-27T15:02:18.663Z,2.30
2017-11-27T15:04:46.405Z,2.20
2017-11-27T15:07:14.794Z,2.57
2017-11-27T15:09:42.370Z,2.20
2017-11-27T15:12:10.053Z,3.50
2017-11-27T15:14:37.640Z,2.10
2017-11-27T15:17:05.198Z,2.23
2017-11-27T15:19:32.706Z,1.93
2017-11-27T15:22:00.333Z,2.00
2017-11-27T15:24:27.853Z,2.13
2017-11-27T15:26:55.374Z,1.97
2017-11-27T15:29:22.931Z,2.10
2017-11-27T15:31:50.470Z,1.87
2017-11-27T15:34:18.041Z,2.77
2017-11-27T15:36:45.642Z,2.10
2017-11-27T15:39:13.174Z,2.57
2017-11-27T15:41:41.556Z,1.90
2017-11-27T15:44:09.844Z,1.70
2017-11-27T15:46:37.433Z,1.83
2017-11-27T15:49:04.984Z,2.13
2017-11-27T15:51:32.604Z,2.10
2017-11-27T15:54:00.995Z,2.37
2017-11-27T15:56:29.303Z,3.40
2017-11-27T15:58:56.915Z,3.33
2017-11-27T16:01:25.641Z,3.47
2017-11-27T16:03:53.245Z,3.23
2017-11-27T16:06:20.811Z,2.40
2017-11-27T16:08:48.470Z,2.40
2017-11-27T16:11:16.212Z,2.40
2017-11-27T16:13:44.749Z,2.23
2017-11-27T16:16:12.329Z,2.60
2017-11-27T16:18:39.900Z,2.17
2017-11-27T16:21:07.431Z,2.33
2017-11-27T16:23:35.111Z,2.00
2017-11-27T16:26:02.629Z,2.20
2017-11-27T16:28:30.247Z,1.97
2017-11-27T16:30:57.851Z,2.80
2017-11-27T16:33:25.416Z,2.03
2017-11-27T16:35:53.018Z,2.60
2017-11-27T16:38:20.571Z,2.43
2017-11-27T16:40:48.131Z,2.37
2017-11-27T16:43:15.668Z,2.27
2017-11-27T16:45:43.939Z,2.00
2017-11-27T16:48:11.500Z,2.60
2017-11-27T16:50:39.830Z,2.57
2017-11-27T16:53:07.457Z,2.67
2017-11-27T16:55:35.063Z,2.37
2017-11-27T16:58:02.588Z,2.40
2017-11-27T17:00:30.109Z,2.93
2017-11-27T17:02:57.683Z,2.77
2017-11-27T17:05:25.212Z,3.03
2017-11-27T17:07:53.598Z,2.77
2017-11-27T17:10:21.134Z,2.00
2017-11-27T17:12:48.681Z,2.40
2017-11-27T17:15:16.201Z,2.17
2017-11-27T17:17:43.809Z,2.20
2017-11-27T17:20:11.873Z,2.40
2017-11-27T17:22:39.437Z,2.30
2017-11-27T17:25:06.999Z,2.90
2017-11-27T17:27:34.561Z,2.53
2017-11-27T17:30:02.124Z,2.60
2017-11-27T17:32:29.706Z,2.20
2017-11-27T17:34:57.266Z,2.37
2017-11-27T17:37:24.826Z,2.20
2017-11-27T17:39:52.399Z,2.40
2017-11-27T17:42:19.973Z,1.97
2017-11-27T17:44:47.598Z,2.17
2017-11-27T17:47:15.234Z,1.87
2017-11-27T17:49:42.867Z,2.03
2017-11-27T17:52:11.528Z,2.30
2017-11-27T17:54:39.170Z,2.13
2017-11-27T17:57:06.870Z,2.30
2017-11-27T17:59:35.294Z,2.20
2017-11-27T18:02:02.834Z,2.40
2017-11-27T18:04:30.360Z,2.53
2017-11-27T18:06:58.698Z,2.37
2017-11-27T18:09:26.212Z,3.27
2017-11-27T18:11:54.545Z,3.73
2017-11-27T18:14:22.082Z,2.70
2017-11-27T18:16:49.617Z,2.90
2017-11-27T18:19:17.171Z,2.23
2017-11-27T18:21:44.739Z,2.50
2017-11-27T18:24:12.389Z,2.50
2017-11-27T18:26:39.898Z,2.30
2017-11-27T18:29:07.425Z,2.53
2017-11-27T18:31:34.972Z,2.70
2017-11-27T18:34:02.514Z,2.17
2017-11-27T18:36:30.085Z,2.73
2017-11-27T18:38:58.398Z,2.77
2017-11-27T18:41:26.144Z,2.37
2017-11-27T18:43:53.712Z,3.27
2017-11-27T18:46:21.485Z,2.53
2017-11-27T18:48:49.084Z,2.40
2017-11-27T18:51:16.634Z,1.90
2017-11-27T18:53:44.155Z,2.20
2017-11-27T18:56:11.701Z,2.30
2017-11-27T18:58:39.246Z,2.00
2017-11-27T19:01:06.843Z,2.13
2017-11-27T19:03:34.370Z,2.20
2017-11-27T19:06:02.743Z,1.87
2017-11-27T19:08:30.744Z,2.17
2017-11-27T19:10:58.553Z,2.30
2017-11-27T19:13:26.168Z,2.00
2017-11-27T19:15:53.795Z,1.97
2017-11-27T19:18:21.332Z,2.10
2017-11-27T19:20:48.890Z,1.87
2017-11-27T19:23:16.493Z,2.40
2017-11-27T19:25:44.033Z,3.50
2017-11-27T19:28:11.599Z,6.33
2017-11-27T19:30:39.153Z,6.33
2017-11-27T19:33:06.665Z,7.30
2017-11-27T19:35:34.206Z,6.43
2017-11-27T19:38:01.765Z,6.23
2017-11-27T19:40:29.285Z,4.30
2017-11-27T19:42:56.796Z,2.37
2017-11-27T19:45:24.338Z,2.37
2017-11-27T19:47:51.853Z,2.70
2017-11-27T19:50:19.403Z,2.53
2017-11-27T19:52:46.978Z,2.30
2017-11-27T19:55:14.546Z,2.17
2017-11-27T19:57:42.818Z,4.37
2017-11-27T20:00:10.420Z,2.90
2017-11-27T20:02:37.960Z,2.40
2017-11-27T20:05:05.519Z,3.07
2017-11-27T20:07:33.069Z,3.23
2017-11-27T20:10:00.659Z,2.50
2017-11-27T20:12:28.206Z,2.77
2017-11-27T20:14:55.779Z,2.17
2017-11-27T20:17:23.319Z,2.17
2017-11-27T20:19:50.828Z,2.90
2017-11-27T20:22:18.389Z,2.80
2017-11-27T20:24:45.931Z,3.00
2017-11-27T20:27:13.517Z,2.43
2017-11-27T20:29:41.038Z,2.60
2017-11-27T20:32:08.549Z,2.60
2017-11-27T20:34:36.884Z,1.93
2017-11-27T20:37:04.434Z,2.20
2017-11-27T20:39:31.978Z,2.53
2017-11-27T20:41:59.532Z,2.40
2017-11-27T20:44:27.066Z,2.40
2017-11-27T20:46:55.386Z,1.93
2017-11-27T20:49:22.934Z,2.70
2017-11-27T20:51:50.489Z,2.40
2017-11-27T20:54:18.089Z,2.60
2017-11-27T20:56:45.614Z,1.70
2017-11-27T20:59:13.239Z,2.13
2017-11-27T21:01:40.810Z,2.13
2017-11-27T21:04:09.108Z,2.27
2017-11-27T21:06:36.645Z,2.40
2017-11-27T21:09:04.959Z,2.13
2017-11-27T21:11:32.482Z,1.83
2017-11-27T21:14:00.789Z,1.90
2017-11-27T21:16:28.345Z,2.30
2017-11-27T21:18:55.912Z,2.83
2017-11-27T21:21:23.734Z,1.97
2017-11-27T21:23:51.290Z,2.00
2017-11-27T21:26:18.854Z,3.13
2017-11-27T21:28:46.405Z,1.80
2017-11-27T21:31:13.952Z,1.90
2017-11-27T21:33:41.476Z,2.03
2017-11-27T21:36:09.050Z,2.30
2017-11-27T21:38:36.572Z,2.00
2017-11-27T21:41:04.105Z,1.83
2017-11-27T21:43:32.277Z,1.90
2017-11-27T21:45:59.865Z,2.07
2017-11-27T21:48:27.411Z,2.00
2017-11-27T21:50:55.685Z,2.00
2017-11-27T21:53:23.241Z,2.50
2017-11-27T21:55:51.518Z,2.30
2017-11-27T21:58:19.081Z,2.80
2017-11-27T22:00:47.372Z,3.47
2017-11-27T22:03:14.893Z,2.20
2017-11-27T22:05:42.441Z,2.53
2017-11-27T22:08:09.992Z,2.23
2017-11-27T22:10:37.537Z,2.13
2017-11-27T22:13:05.058Z,2.20
2017-11-27T22:15:33.476Z,2.00
2017-11-27T22:18:01.294Z,2.37
2017-11-27T22:20:28.841Z,2.90
2017-11-27T22:22:56.351Z,2.33
2017-11-27T22:25:23.906Z,2.40
2017-11-27T22:27:51.422Z,2.60
2017-11-27T22:30:18.958Z,2.70
2017-11-27T22:32:46.509Z,3.13
2017-11-27T22:35:14.048Z,2.70
2017-11-27T22:37:41.602Z,3.70
2017-11-27T22:40:09.159Z,3.60
2017-11-27T22:42:36.680Z,3.60
2017-11-27T22:45:04.231Z,3.30
2017-11-27T22:47:31.778Z,3.27
2017-11-27T22:49:59.282Z,3.30
2017-11-27T22:52:26.822Z,3.33
2017-11-27T22:54:54.374Z,3.07
2017-11-27T22:57:21.929Z,4.00
2017-11-27T22:59:49.447Z,2.67
2017-11-27T23:02:17.006Z,2.50
2017-11-27T23:04:44.561Z,2.67
2017-11-27T23:07:12.088Z,2.67
2017-11-27T23:09:39.606Z,2.50
2017-11-27T23:12:07.149Z,3.10
2017-11-27T23:14:34.678Z,3.00
2017-11-27T23:17:02.987Z,2.80
2017-11-27T23:19:30.494Z,2.70
2017-11-27T23:21:58.086Z,3.33
2017-11-27T23:24:25.635Z,3.13
2017-11-27T23:26:53.157Z,3.20
2017-11-27T23:29:20.702Z,3.00
2017-11-27T23:31:48.222Z,2.40
2017-11-27T23:34:15.808Z,2.53
2017-11-27T23:36:43.359Z,2.53
2017-11-27T23:39:10.904Z,2.50
2017-11-27T23:41:38.424Z,2.50
2017-11-27T23:44:06.758Z,2.30
2017-11-27T23:46:34.324Z,2.40
2017-11-27T23:49:01.850Z,2.27
2017-11-27T23:51:29.841Z,2.20
2017-11-27T23:53:57.387Z,2.43
2017-11-27T23:56:24.929Z,2.60
2017-11-27T23:58:52.505Z,2.50
